sensor_id;sensor_type;location;lat;lon;timestamp;pressure;altitude;pressure_sealevel;temperature;humidity
54236;BME280;40151;43.606;1.472;2023-03-14T00:01:13;98904.06;;;19.91;54.07
54236;BME280;40151;43.606;1.472;2023-03-14T00:03:39;98907.44;;;19.93;53.93
54236;BME280;40151;43.606;1.472;2023-03-14T00:06:05;98915.50;;;19.91;54.10
54236;BME280;40151;43.606;1.472;2023-03-14T00:08:31;98917.22;;;19.92;54.04
54236;BME280;40151;43.606;1.472;2023-03-14T00:10:57;98920.03;;;19.89;54.11
54236;BME280;40151;43.606;1.472;2023-03-14T00:13:25;98913.91;;;19.89;53.93
54236;BME280;40151;43.606;1.472;2023-03-14T00:15:50;98905.97;;;19.89;54.13
54236;BME280;40151;43.606;1.472;2023-03-14T00:18:16;98905.84;;;19.90;54.04
54236;BME280;40151;43.606;1.472;2023-03-14T00:20:41;98903.31;;;19.89;54.06
54236;BME280;40151;43.606;1.472;2023-03-14T00:23:07;98903.41;;;19.87;54.06
54236;BME280;40151;43.606;1.472;2023-03-14T00:25:32;98900.69;;;19.89;54.06
54236;BME280;40151;43.606;1.472;2023-03-14T00:27:57;98908.63;;;19.89;54.13
54236;BME280;40151;43.606;1.472;2023-03-14T00:30:23;98903.50;;;19.85;53.97
54236;BME280;40151;43.606;1.472;2023-03-14T00:32:48;98902.56;;;19.86;54.17
54236;BME280;40151;43.606;1.472;2023-03-14T00:35:14;98902.66;;;19.85;54.14
54236;BME280;40151;43.606;1.472;2023-03-14T00:37:40;98904.56;;;19.83;54.08
54236;BME280;40151;43.606;1.472;2023-03-14T00:40:06;98914.09;;;19.85;54.10
54236;BME280;40151;43.606;1.472;2023-03-14T00:42:32;98915.06;;;19.84;54.10
54236;BME280;40151;43.606;1.472;2023-03-14T00:44:58;98908.06;;;19.83;54.30
54236;BME280;40151;43.606;1.472;2023-03-14T00:47:23;98910.72;;;19.83;54.17
54236;BME280;40151;43.606;1.472;2023-03-14T00:49:49;98902.78;;;19.83;54.02
54236;BME280;40151;43.606;1.472;2023-03-14T00:52:14;98893.09;;;19.82;54.24
54236;BME280;40151;43.606;1.472;2023-03-14T00:54:40;98893.09;;;19.82;54.14
54236;BME280;40151;43.606;1.472;2023-03-14T00:57:05;98900.31;;;19.80;54.27
54236;BME280;40151;43.606;1.472;2023-03-14T00:59:31;98893.97;;;19.83;53.98
54236;BME280;40151;43.606;1.472;2023-03-14T01:01:56;98895.03;;;19.80;54.14
54236;BME280;40151;43.606;1.472;2023-03-14T01:04:21;98893.31;;;19.79;54.21
54236;BME280;40151;43.606;1.472;2023-03-14T01:06:48;98895.03;;;19.80;54.14
54236;BME280;40151;43.606;1.472;2023-03-14T01:09:13;98893.31;;;19.79;54.10
54236;BME280;40151;43.606;1.472;2023-03-14T01:11:39;98894.19;;;19.80;54.07
54236;BME280;40151;43.606;1.472;2023-03-14T01:14:05;98888.22;;;19.76;54.27
54236;BME280;40151;43.606;1.472;2023-03-14T01:16:32;98877.63;;;19.76;54.01
54236;BME280;40151;43.606;1.472;2023-03-14T01:18:58;98882.19;;;19.74;54.00
54236;BME280;40151;43.606;1.472;2023-03-14T01:21:26;98884.91;;;19.72;54.10
54236;BME280;40151;43.606;1.472;2023-03-14T01:23:54;98886.75;;;19.72;54.11
54236;BME280;40151;43.606;1.472;2023-03-14T01:26:21;98887.56;;;19.72;54.19
54236;BME280;40151;43.606;1.472;2023-03-14T01:28:48;98891.16;;;19.71;53.97
54236;BME280;40151;43.606;1.472;2023-03-14T01:31:15;98882.28;;;19.72;54.04
54236;BME280;40151;43.606;1.472;2023-03-14T01:33:41;98890.13;;;19.74;53.97
54236;BME280;40151;43.606;1.472;2023-03-14T01:36:07;98883.13;;;19.73;54.04
54236;BME280;40151;43.606;1.472;2023-03-14T01:38:34;98875.38;;;19.70;54.12
54236;BME280;40151;43.606;1.472;2023-03-14T01:41:01;98871.91;;;19.69;54.22
54236;BME280;40151;43.606;1.472;2023-03-14T01:43:27;98882.50;;;19.69;53.80
54236;BME280;40151;43.606;1.472;2023-03-14T01:51:19;98884.38;;;19.67;53.80
54236;BME280;40151;43.606;1.472;2023-03-14T01:53:47;98887.97;;;19.66;53.74
54236;BME280;40151;43.606;1.472;2023-03-14T01:56:16;98882.75;;;19.65;54.00
54236;BME280;40151;43.606;1.472;2023-03-14T01:58:45;98875.78;;;19.64;53.78
54236;BME280;40151;43.606;1.472;2023-03-14T02:01:11;98877.69;;;19.62;53.65
54236;BME280;40151;43.606;1.472;2023-03-14T02:03:47;98871.44;;;19.63;53.76
54236;BME280;40151;43.606;1.472;2023-03-14T02:06:17;98868.06;;;19.61;53.86
54236;BME280;40151;43.606;1.472;2023-03-14T02:08:44;98864.63;;;19.58;53.54
54236;BME280;40151;43.606;1.472;2023-03-14T02:11:14;98870.78;;;19.59;53.75
54236;BME280;40151;43.606;1.472;2023-03-14T02:13:39;98863.72;;;19.59;53.79
54236;BME280;40151;43.606;1.472;2023-03-14T02:16:05;98868.16;;;19.59;53.73
54236;BME280;40151;43.606;1.472;2023-03-14T02:18:30;98858.41;;;19.59;53.99
54236;BME280;40151;43.606;1.472;2023-03-14T02:21:17;98860.13;;;19.61;53.77
54236;BME280;40151;43.606;1.472;2023-03-14T02:26:23;98859.34;;;19.58;53.90
54236;BME280;40151;43.606;1.472;2023-03-14T02:28:52;98852.19;;;19.61;53.85
54236;BME280;40151;43.606;1.472;2023-03-14T02:31:19;98848.56;;;19.62;53.67
54236;BME280;40151;43.606;1.472;2023-03-14T02:33:46;98847.72;;;19.61;53.70
54236;BME280;40151;43.606;1.472;2023-03-14T02:36:13;98848.56;;;19.62;53.72
54236;BME280;40151;43.606;1.472;2023-03-14T02:41:26;98863.59;;;19.61;53.79
54236;BME280;40151;43.606;1.472;2023-03-14T02:43:51;98858.41;;;19.59;53.78
54236;BME280;40151;43.606;1.472;2023-03-14T02:46:18;98850.47;;;19.59;53.65
54236;BME280;40151;43.606;1.472;2023-03-14T02:48:52;98877.69;;;19.62;53.67
54236;BME280;40151;43.606;1.472;2023-03-14T02:51:19;98864.44;;;19.62;53.94
54236;BME280;40151;43.606;1.472;2023-03-14T02:53:45;98868.88;;;19.61;53.67
54236;BME280;40151;43.606;1.472;2023-03-14T02:56:11;98883.94;;;19.61;53.58
54236;BME280;40151;43.606;1.472;2023-03-14T02:58:37;98883.94;;;19.61;53.75
54236;BME280;40151;43.606;1.472;2023-03-14T03:01:02;98882.25;;;19.59;53.47
54236;BME280;40151;43.606;1.472;2023-03-14T03:03:28;98886.75;;;19.57;53.32
54236;BME280;40151;43.606;1.472;2023-03-14T03:05:55;98874.41;;;19.58;53.49
54236;BME280;40151;43.606;1.472;2023-03-14T03:08:22;98872.56;;;19.58;53.37
54236;BME280;40151;43.606;1.472;2023-03-14T03:10:49;98862.00;;;19.58;53.22
54236;BME280;40151;43.606;1.472;2023-03-14T03:13:14;98871.66;;;19.59;53.35
54236;BME280;40151;43.606;1.472;2023-03-14T03:15:40;98843.47;;;19.58;53.40
54236;BME280;40151;43.606;1.472;2023-03-14T03:18:06;98867.41;;;19.57;53.36
54236;BME280;40151;43.606;1.472;2023-03-14T03:20:31;98878.00;;;19.57;53.26
54236;BME280;40151;43.606;1.472;2023-03-14T03:22:58;98881.56;;;19.56;53.14
54236;BME280;40151;43.606;1.472;2023-03-14T03:25:24;98886.03;;;19.55;53.13
54236;BME280;40151;43.606;1.472;2023-03-14T03:27:49;98892.16;;;19.56;53.38
54236;BME280;40151;43.606;1.472;2023-03-14T03:30:15;98899.16;;;19.57;53.07
54236;BME280;40151;43.606;1.472;2023-03-14T03:32:41;98902.63;;;19.57;53.09
54236;BME280;40151;43.606;1.472;2023-03-14T03:35:06;98897.44;;;19.56;53.15
54236;BME280;40151;43.606;1.472;2023-03-14T03:37:33;98900.09;;;19.56;52.99
54236;BME280;40151;43.606;1.472;2023-03-14T03:39:58;98910.78;;;19.54;52.91
54236;BME280;40151;43.606;1.472;2023-03-14T03:42:30;98899.34;;;19.54;53.08
54236;BME280;40151;43.606;1.472;2023-03-14T03:44:55;98911.75;;;19.53;52.73
54236;BME280;40151;43.606;1.472;2023-03-14T03:47:20;98889.63;;;19.54;53.02
54236;BME280;40151;43.606;1.472;2023-03-14T03:49:46;98911.63;;;19.55;52.86
54236;BME280;40151;43.606;1.472;2023-03-14T03:52:11;98928.53;;;19.52;52.61
54236;BME280;40151;43.606;1.472;2023-03-14T03:54:37;98928.53;;;19.52;52.77
54236;BME280;40151;43.606;1.472;2023-03-14T03:57:03;98930.28;;;19.53;52.67
54236;BME280;40151;43.606;1.472;2023-03-14T03:59:29;98932.06;;;19.53;52.50
54236;BME280;40151;43.606;1.472;2023-03-14T04:01:54;98934.69;;;19.53;52.44
54236;BME280;40151;43.606;1.472;2023-03-14T04:04:19;98947.19;;;19.51;52.48
54236;BME280;40151;43.606;1.472;2023-03-14T04:06:45;98951.63;;;19.50;52.35
54236;BME280;40151;43.606;1.472;2023-03-14T04:09:11;98960.50;;;19.49;52.40
54236;BME280;40151;43.606;1.472;2023-03-14T04:11:36;98956.91;;;19.50;52.45
54236;BME280;40151;43.606;1.472;2023-03-14T04:14:03;98965.81;;;19.49;52.40
54236;BME280;40151;43.606;1.472;2023-03-14T04:16:28;98958.81;;;19.48;52.30
54236;BME280;40151;43.606;1.472;2023-03-14T04:18:56;98967.69;;;19.47;52.48
54236;BME280;40151;43.606;1.472;2023-03-14T04:21:21;98976.38;;;19.49;52.26
54236;BME280;40151;43.606;1.472;2023-03-14T04:23:47;98960.59;;;19.48;52.38
54236;BME280;40151;43.606;1.472;2023-03-14T04:26:12;98967.69;;;19.47;52.48
54236;BME280;40151;43.606;1.472;2023-03-14T04:28:38;98954.56;;;19.45;52.39
54236;BME280;40151;43.606;1.472;2023-03-14T04:31:13;98955.38;;;19.46;52.19
54236;BME280;40151;43.606;1.472;2023-03-14T04:33:39;98963.31;;;19.46;52.45
54236;BME280;40151;43.606;1.472;2023-03-14T04:36:05;98970.44;;;19.45;52.10
54236;BME280;40151;43.606;1.472;2023-03-14T04:38:32;98984.50;;;19.46;52.20
54236;BME280;40151;43.606;1.472;2023-03-14T04:40:57;98983.75;;;19.44;52.39
54236;BME280;40151;43.606;1.472;2023-03-14T04:43:24;99000.50;;;19.44;52.12
54236;BME280;40151;43.606;1.472;2023-03-14T04:45:51;98996.97;;;19.44;52.05
54236;BME280;40151;43.606;1.472;2023-03-14T04:48:18;98998.75;;;19.43;52.01
54236;BME280;40151;43.606;1.472;2023-03-14T04:50:43;99003.13;;;19.44;52.13
54236;BME280;40151;43.606;1.472;2023-03-14T04:53:08;98996.25;;;19.42;52.38
54236;BME280;40151;43.606;1.472;2023-03-14T04:55:34;99005.88;;;19.43;52.33
54236;BME280;40151;43.606;1.472;2023-03-14T04:58:00;99022.69;;;19.42;52.17
54236;BME280;40151;43.606;1.472;2023-03-14T05:00:25;99018.31;;;19.41;52.18
54236;BME280;40151;43.606;1.472;2023-03-14T05:02:51;99015.69;;;19.41;52.13
54236;BME280;40151;43.606;1.472;2023-03-14T05:05:16;99014.75;;;19.42;52.10
54236;BME280;40151;43.606;1.472;2023-03-14T05:07:42;99017.50;;;19.40;52.18
54236;BME280;40151;43.606;1.472;2023-03-14T05:10:08;99007.66;;;19.42;52.22
54236;BME280;40151;43.606;1.472;2023-03-14T05:12:34;99024.56;;;19.40;52.21
54236;BME280;40151;43.606;1.472;2023-03-14T05:14:59;99026.25;;;19.41;51.91
54236;BME280;40151;43.606;1.472;2023-03-14T05:17:25;99038.66;;;19.40;51.94
54236;BME280;40151;43.606;1.472;2023-03-14T05:19:50;99038.66;;;19.40;52.21
54236;BME280;40151;43.606;1.472;2023-03-14T05:22:16;99043.09;;;19.40;52.07
54236;BME280;40151;43.606;1.472;2023-03-14T05:24:41;99030.81;;;19.39;51.97
54236;BME280;40151;43.606;1.472;2023-03-14T05:27:06;99039.69;;;19.38;52.09
54236;BME280;40151;43.606;1.472;2023-03-14T05:29:32;99030.06;;;19.37;51.98
54236;BME280;40151;43.606;1.472;2023-03-14T05:31:57;99030.25;;;19.34;51.94
54236;BME280;40151;43.606;1.472;2023-03-14T05:34:23;99026.63;;;19.35;52.02
54236;BME280;40151;43.606;1.472;2023-03-14T05:36:48;99031.09;;;19.34;51.97
54236;BME280;40151;43.606;1.472;2023-03-14T05:39:13;99028.53;;;19.32;51.93
54236;BME280;40151;43.606;1.472;2023-03-14T05:41:39;99034.69;;;19.33;51.97
54236;BME280;40151;43.606;1.472;2023-03-14T05:44:04;99026.84;;;19.31;52.01
54236;BME280;40151;43.606;1.472;2023-03-14T05:46:30;99032.97;;;19.32;51.96
54236;BME280;40151;43.606;1.472;2023-03-14T05:48:57;99035.72;;;19.30;51.96
54236;BME280;40151;43.606;1.472;2023-03-14T05:51:22;99041.03;;;19.30;51.92
54236;BME280;40151;43.606;1.472;2023-03-14T05:53:47;99035.72;;;19.30;51.88
54236;BME280;40151;43.606;1.472;2023-03-14T05:56:13;99055.19;;;19.29;52.04
54236;BME280;40151;43.606;1.472;2023-03-14T05:58:38;99051.78;;;19.27;51.83
54236;BME280;40151;43.606;1.472;2023-03-14T06:01:05;99080.97;;;19.26;52.12
54236;BME280;40151;43.606;1.472;2023-03-14T06:03:31;99105.03;;;19.21;51.58
54236;BME280;40151;43.606;1.472;2023-03-14T06:05:56;99090.69;;;19.25;51.79
54236;BME280;40151;43.606;1.472;2023-03-14T06:08:22;99089.00;;;19.24;51.85
54236;BME280;40151;43.606;1.472;2023-03-14T06:10:47;99119.81;;;19.25;52.09
54236;BME280;40151;43.606;1.472;2023-03-14T06:13:13;99099.59;;;19.24;52.41
54236;BME280;40151;43.606;1.472;2023-03-14T06:15:40;99106.75;;;19.22;52.49
54236;BME280;40151;43.606;1.472;2023-03-14T06:18:06;99101.28;;;19.25;52.41
54236;BME280;40151;43.606;1.472;2023-03-14T06:20:32;99106.75;;;19.22;52.54
54236;BME280;40151;43.606;1.472;2023-03-14T06:22:58;99113.94;;;19.20;52.73
54236;BME280;40151;43.606;1.472;2023-03-14T06:25:24;99114.88;;;19.19;52.72
54236;BME280;40151;43.606;1.472;2023-03-14T06:27:49;99125.38;;;19.21;52.60
54236;BME280;40151;43.606;1.472;2023-03-14T06:30:15;99136.97;;;19.18;52.57
54236;BME280;40151;43.606;1.472;2023-03-14T06:32:41;99150.28;;;19.16;52.74
54236;BME280;40151;43.606;1.472;2023-03-14T06:35:06;99156.59;;;19.14;54.62
54236;BME280;40151;43.606;1.472;2023-03-14T06:37:32;99156.53;;;19.15;54.68
54236;BME280;40151;43.606;1.472;2023-03-14T06:39:57;99156.41;;;19.17;54.68
54236;BME280;40151;43.606;1.472;2023-03-14T06:42:22;99162.56;;;19.17;54.63
54236;BME280;40151;43.606;1.472;2023-03-14T06:44:48;99163.50;;;19.16;54.63
54236;BME280;40151;43.606;1.472;2023-03-14T06:47:13;99165.28;;;19.16;54.70
54236;BME280;40151;43.606;1.472;2023-03-14T06:49:39;99161.69;;;19.17;54.50
54236;BME280;40151;43.606;1.472;2023-03-14T06:52:04;99183.06;;;19.14;54.60
54236;BME280;40151;43.606;1.472;2023-03-14T06:54:30;99158.31;;;19.15;54.46
54236;BME280;40151;43.606;1.472;2023-03-14T06:56:55;99174.94;;;19.17;54.19
54236;BME280;40151;43.606;1.472;2023-03-14T06:59:21;99189.88;;;19.18;54.33
54236;BME280;40151;43.606;1.472;2023-03-14T07:01:46;99198.72;;;19.17;54.29
54236;BME280;40151;43.606;1.472;2023-03-14T07:04:13;99198.91;;;19.14;54.21
54236;BME280;40151;43.606;1.472;2023-03-14T07:06:39;99213.09;;;19.13;54.32
54236;BME280;40151;43.606;1.472;2023-03-14T07:09:12;99197.22;;;19.13;54.41
54236;BME280;40151;43.606;1.472;2023-03-14T07:11:37;99206.19;;;19.10;54.58
54236;BME280;40151;43.606;1.472;2023-03-14T07:14:03;99220.25;;;19.11;53.95
54236;BME280;40151;43.606;1.472;2023-03-14T07:16:28;99214.03;;;19.12;54.44
54236;BME280;40151;43.606;1.472;2023-03-14T07:18:57;99214.78;;;19.14;54.18
54236;BME280;40151;43.606;1.472;2023-03-14T07:21:22;99217.44;;;19.14;54.11
54236;BME280;40151;43.606;1.472;2023-03-14T07:23:48;99217.50;;;19.12;54.04
54236;BME280;40151;43.606;1.472;2023-03-14T07:26:13;99217.72;;;19.09;54.38
54236;BME280;40151;43.606;1.472;2023-03-14T07:28:39;99214.94;;;19.11;54.17
54236;BME280;40151;43.606;1.472;2023-03-14T07:31:04;99226.41;;;19.11;54.36
54236;BME280;40151;43.606;1.472;2023-03-14T07:33:30;99223.66;;;19.13;54.12
54236;BME280;40151;43.606;1.472;2023-03-14T07:35:55;99234.25;;;19.13;54.22
54236;BME280;40151;43.606;1.472;2023-03-14T07:38:21;99224.69;;;19.10;54.24
54236;BME280;40151;43.606;1.472;2023-03-14T07:40:46;99237.84;;;19.12;54.41
54236;BME280;40151;43.606;1.472;2023-03-14T07:43:12;99240.47;;;19.12;54.20
54236;BME280;40151;43.606;1.472;2023-03-14T07:45:37;99242.25;;;19.11;54.16
54236;BME280;40151;43.606;1.472;2023-03-14T07:48:02;99259.00;;;19.12;54.14
54236;BME280;40151;43.606;1.472;2023-03-14T07:50:28;99259.84;;;19.12;54.29
54236;BME280;40151;43.606;1.472;2023-03-14T07:52:54;99252.16;;;19.08;54.33
54236;BME280;40151;43.606;1.472;2023-03-14T07:55:20;99259.00;;;19.12;53.94
54236;BME280;40151;43.606;1.472;2023-03-14T07:57:45;99258.13;;;19.11;53.99
54236;BME280;40151;43.606;1.472;2023-03-14T08:00:11;99268.63;;;19.13;54.04
54236;BME280;40151;43.606;1.472;2023-03-14T08:02:39;99270.34;;;19.14;53.94
54236;BME280;40151;43.606;1.472;2023-03-14T08:05:05;99273.81;;;19.14;53.90
54236;BME280;40151;43.606;1.472;2023-03-14T08:07:31;99263.22;;;19.14;54.12
54236;BME280;40151;43.606;1.472;2023-03-14T08:10:03;99277.50;;;19.12;54.03
54236;BME280;40151;43.606;1.472;2023-03-14T08:12:31;99287.91;;;19.15;53.92
54236;BME280;40151;43.606;1.472;2023-03-14T08:14:57;99283.56;;;19.14;53.92
54236;BME280;40151;43.606;1.472;2023-03-14T08:17:24;99301.31;;;19.12;53.87
54236;BME280;40151;43.606;1.472;2023-03-14T08:19:50;99301.13;;;19.15;53.75
54236;BME280;40151;43.606;1.472;2023-03-14T08:22:15;99310.00;;;19.14;54.03
54236;BME280;40151;43.606;1.472;2023-03-14T08:24:40;99315.22;;;19.15;53.85
54236;BME280;40151;43.606;1.472;2023-03-14T08:27:06;99324.94;;;19.15;54.11
54236;BME280;40151;43.606;1.472;2023-03-14T08:29:32;99325.81;;;19.15;53.74
54236;BME280;40151;43.606;1.472;2023-03-14T08:31:57;99324.00;;;19.16;53.95
54236;BME280;40151;43.606;1.472;2023-03-14T08:34:22;99327.56;;;19.15;53.82
54236;BME280;40151;43.606;1.472;2023-03-14T08:36:48;99324.94;;;19.15;53.86
54236;BME280;40151;43.606;1.472;2023-03-14T08:39:13;99331.09;;;19.15;53.93
54236;BME280;40151;43.606;1.472;2023-03-14T08:41:39;99334.56;;;19.16;53.88
54236;BME280;40151;43.606;1.472;2023-03-14T08:44:09;99337.22;;;19.16;53.74
54236;BME280;40151;43.606;1.472;2023-03-14T08:46:36;99335.50;;;19.15;53.55
54236;BME280;40151;43.606;1.472;2023-03-14T08:49:02;99336.28;;;19.17;53.74
54236;BME280;40151;43.606;1.472;2023-03-14T08:51:27;99330.97;;;19.17;53.62
54236;BME280;40151;43.606;1.472;2023-03-14T08:53:53;99335.44;;;19.16;53.54
54236;BME280;40151;43.606;1.472;2023-03-14T08:56:18;99326.63;;;19.16;53.64
54236;BME280;40151;43.606;1.472;2023-03-14T08:58:43;99337.22;;;19.16;53.75
54236;BME280;40151;43.606;1.472;2023-03-14T09:01:10;99338.16;;;19.15;53.63
54236;BME280;40151;43.606;1.472;2023-03-14T09:03:36;99331.16;;;19.14;53.64
54236;BME280;40151;43.606;1.472;2023-03-14T09:06:07;99345.34;;;19.13;53.70
54236;BME280;40151;43.606;1.472;2023-03-14T09:08:34;99342.69;;;19.13;53.45
54236;BME280;40151;43.606;1.472;2023-03-14T09:10:59;99346.16;;;19.13;53.65
54236;BME280;40151;43.606;1.472;2023-03-14T09:13:25;99329.47;;;19.13;53.56
54236;BME280;40151;43.606;1.472;2023-03-14T09:15:55;99364.88;;;19.10;53.74
54236;BME280;40151;43.606;1.472;2023-03-14T09:18:20;99432.16;;;19.04;53.83
54236;BME280;40151;43.606;1.472;2023-03-14T09:20:46;99425.31;;;19.00;53.80
54236;BME280;40151;43.606;1.472;2023-03-14T09:23:11;99416.44;;;19.01;53.44
54236;BME280;40151;43.606;1.472;2023-03-14T09:25:37;99422.56;;;19.02;53.46
54236;BME280;40151;43.606;1.472;2023-03-14T09:28:03;99413.88;;;19.00;53.21
54236;BME280;40151;43.606;1.472;2023-03-14T09:30:29;99429.03;;;18.96;53.20
54236;BME280;40151;43.606;1.472;2023-03-14T09:32:54;99425.63;;;18.94;53.41
54236;BME280;40151;43.606;1.472;2023-03-14T09:35:19;99429.88;;;18.97;53.50
54236;BME280;40151;43.606;1.472;2023-03-14T09:37:45;99411.63;;;18.92;53.39
54236;BME280;40151;43.606;1.472;2023-03-14T09:40:13;99413.44;;;18.91;53.20
54236;BME280;40151;43.606;1.472;2023-03-14T09:42:39;99413.50;;;18.90;53.59
54236;BME280;40151;43.606;1.472;2023-03-14T09:45:11;99413.50;;;18.90;53.36
54236;BME280;40151;43.606;1.472;2023-03-14T09:47:39;99415.22;;;18.91;53.20
54236;BME280;40151;43.606;1.472;2023-03-14T09:50:09;99420.50;;;18.91;53.37
54236;BME280;40151;43.606;1.472;2023-03-14T09:52:38;99416.06;;;18.91;53.45
54236;BME280;40151;43.606;1.472;2023-03-14T09:55:10;99433.56;;;18.94;53.42
54236;BME280;40151;43.606;1.472;2023-03-14T09:57:36;99423.75;;;18.96;53.44
54236;BME280;40151;43.606;1.472;2023-03-14T10:00:14;99427.34;;;18.95;53.72
54236;BME280;40151;43.606;1.472;2023-03-14T10:02:42;99423.75;;;18.96;53.64
54236;BME280;40151;43.606;1.472;2023-03-14T10:05:19;99427.34;;;18.95;53.37
54236;BME280;40151;43.606;1.472;2023-03-14T10:07:44;99421.13;;;18.96;53.56
54236;BME280;40151;43.606;1.472;2023-03-14T10:10:21;99423.75;;;18.96;53.43
54236;BME280;40151;43.606;1.472;2023-03-14T10:13:33;99425.53;;;18.96;53.51
54236;BME280;40151;43.606;1.472;2023-03-14T10:15:34;99434.34;;;18.96;53.50
54236;BME280;40151;43.606;1.472;2023-03-14T10:18:01;99425.47;;;18.97;53.48
54236;BME280;40151;43.606;1.472;2023-03-14T10:20:34;99435.16;;;18.97;53.35
54236;BME280;40151;43.606;1.472;2023-03-14T10:23:01;99431.63;;;18.98;53.51
54236;BME280;40151;43.606;1.472;2023-03-14T10:25:32;99447.38;;;18.99;53.42
54236;BME280;40151;43.606;1.472;2023-03-14T10:27:58;99446.59;;;18.97;53.72
54236;BME280;40151;43.606;1.472;2023-03-14T10:30:32;99446.59;;;18.97;53.50
54236;BME280;40151;43.606;1.472;2023-03-14T10:33:07;99446.53;;;18.99;53.46
54236;BME280;40151;43.606;1.472;2023-03-14T10:35:33;99449.25;;;18.97;53.50
54236;BME280;40151;43.606;1.472;2023-03-14T10:38:03;99457.38;;;18.94;53.60
54236;BME280;40151;43.606;1.472;2023-03-14T10:40:49;99457.19;;;18.97;53.49
54236;BME280;40151;43.606;1.472;2023-03-14T10:43:28;99471.34;;;18.96;53.29
54236;BME280;40151;43.606;1.472;2023-03-14T10:45:58;99457.50;;;18.91;53.73
54236;BME280;40151;43.606;1.472;2023-03-14T10:48:35;99446.06;;;18.90;53.39
54236;BME280;40151;43.606;1.472;2023-03-14T10:51:19;99442.50;;;18.91;53.26
54236;BME280;40151;43.606;1.472;2023-03-14T10:53:56;99446.94;;;18.91;53.54
54236;BME280;40151;43.606;1.472;2023-03-14T10:56:23;99454.94;;;18.89;53.54
54236;BME280;40151;43.606;1.472;2023-03-14T10:58:51;99456.66;;;18.90;53.41
54236;BME280;40151;43.606;1.472;2023-03-14T11:01:36;99477.78;;;18.90;53.51
54236;BME280;40151;43.606;1.472;2023-03-14T11:09:32;99461.50;;;18.82;53.41
54236;BME280;40151;43.606;1.472;2023-03-14T11:14:47;99459.84;;;18.79;53.35
54236;BME280;40151;43.606;1.472;2023-03-14T11:23:03;99470.44;;;18.79;53.47
54236;BME280;40151;43.606;1.472;2023-03-14T11:25:42;99470.44;;;18.79;53.60
54236;BME280;40151;43.606;1.472;2023-03-14T11:30:53;99472.13;;;18.81;53.22
54236;BME280;40151;43.606;1.472;2023-03-14T11:33:26;99479.31;;;18.78;53.40
54236;BME280;40151;43.606;1.472;2023-03-14T11:36:08;99470.44;;;18.79;53.22
54236;BME280;40151;43.606;1.472;2023-03-14T11:38:38;99470.59;;;18.76;53.66
54236;BME280;40151;43.606;1.472;2023-03-14T11:41:14;99477.59;;;18.77;53.32
54236;BME280;40151;43.606;1.472;2023-03-14T11:43:41;99467.03;;;18.77;53.43
54236;BME280;40151;43.606;1.472;2023-03-14T11:46:27;99481.00;;;18.79;53.36
54236;BME280;40151;43.606;1.472;2023-03-14T11:51:27;99479.31;;;18.78;53.35
54236;BME280;40151;43.606;1.472;2023-03-14T11:53:58;99463.25;;;18.82;53.21
54236;BME280;40151;43.606;1.472;2023-03-14T11:56:37;99470.44;;;18.79;53.33
54236;BME280;40151;43.606;1.472;2023-03-14T11:59:09;99445.69;;;18.81;53.27
54236;BME280;40151;43.606;1.472;2023-03-14T12:01:48;99468.56;;;18.82;53.24
54236;BME280;40151;43.606;1.472;2023-03-14T12:04:27;99457.97;;;18.82;53.54
54236;BME280;40151;43.606;1.472;2023-03-14T12:07:02;99436.84;;;18.82;53.23
54236;BME280;40151;43.606;1.472;2023-03-14T12:09:29;99443.94;;;18.81;53.31
54236;BME280;40151;43.606;1.472;2023-03-14T12:11:56;99459.72;;;18.83;53.39
54236;BME280;40151;43.606;1.472;2023-03-14T12:14:28;99449.03;;;18.84;53.29
54236;BME280;40151;43.606;1.472;2023-03-14T12:20:17;99443.69;;;18.86;53.48
54236;BME280;40151;43.606;1.472;2023-03-14T12:25:20;99444.63;;;18.85;53.23
54236;BME280;40151;43.606;1.472;2023-03-14T12:38:06;99423.47;;;18.85;53.36
54236;BME280;40151;43.606;1.472;2023-03-14T12:40:40;99421.69;;;18.85;53.58
54236;BME280;40151;43.606;1.472;2023-03-14T12:43:27;99417.25;;;18.86;53.61
54236;BME280;40151;43.606;1.472;2023-03-14T12:49:08;99413.66;;;18.87;53.34
54236;BME280;40151;43.606;1.472;2023-03-14T12:51:37;99418.00;;;18.88;53.55
54236;BME280;40151;43.606;1.472;2023-03-14T12:59:52;99420.66;;;18.88;53.58
54236;BME280;40151;43.606;1.472;2023-03-14T13:02:30;99418.94;;;18.87;53.40
54236;BME280;40151;43.606;1.472;2023-03-14T13:05:09;99420.66;;;18.88;53.54
54236;BME280;40151;43.606;1.472;2023-03-14T13:15:41;99393.28;;;18.89;53.49
54236;BME280;40151;43.606;1.472;2023-03-14T13:20:38;99387.22;;;18.87;53.84
54236;BME280;40151;43.606;1.472;2023-03-14T13:23:19;99372.22;;;18.87;53.76
54236;BME280;40151;43.606;1.472;2023-03-14T13:25:45;99368.72;;;18.87;53.89
54236;BME280;40151;43.606;1.472;2023-03-14T13:28:11;99370.34;;;18.89;53.86
54236;BME280;40151;43.606;1.472;2023-03-14T13:30:40;99370.34;;;18.89;53.76
54236;BME280;40151;43.606;1.472;2023-03-14T13:33:11;99373.91;;;18.88;53.89
54236;BME280;40151;43.606;1.472;2023-03-14T13:35:43;99366.75;;;18.90;53.76
54236;BME280;40151;43.606;1.472;2023-03-14T13:38:26;99364.97;;;18.91;53.95
54236;BME280;40151;43.606;1.472;2023-03-14T13:40:55;99368.63;;;18.88;54.08
54236;BME280;40151;43.606;1.472;2023-03-14T13:43:32;99382.72;;;18.89;54.21
54236;BME280;40151;43.606;1.472;2023-03-14T13:48:44;99407.94;;;18.78;54.06
54236;BME280;40151;43.606;1.472;2023-03-14T13:51:13;99436.00;;;18.81;54.04
54236;BME280;40151;43.606;1.472;2023-03-14T13:53:53;99436.06;;;18.79;54.12
54236;BME280;40151;43.606;1.472;2023-03-14T13:56:23;99428.22;;;18.78;53.91
54236;BME280;40151;43.606;1.472;2023-03-14T13:58:49;99434.44;;;18.77;53.97
54236;BME280;40151;43.606;1.472;2023-03-14T14:01:20;99428.31;;;18.76;53.90
54236;BME280;40151;43.606;1.472;2023-03-14T14:03:50;99436.13;;;18.78;53.99
54236;BME280;40151;43.606;1.472;2023-03-14T14:06:34;99447.66;;;18.77;53.90
54236;BME280;40151;43.606;1.472;2023-03-14T14:09:24;99459.94;;;18.78;54.13
54236;BME280;40151;43.606;1.472;2023-03-14T14:14:23;99442.28;;;18.78;53.78